Řízení letového provozu České republiky
Letiste: LKTB Aktualizace: 27.03.2017 12:30:10  UTC
 METAR LKTB 27.03. 12:30 ...
METAR LKTB 271230Z 17005KT 130V220 CAVOK 14/M04 Q1026 NOSIG RMK REG QNH 1022=
 TAF LKTB 27.03. 11:00 ...
TAF LKTB 271100Z 2712/2818 VRB02KT CAVOK      TEMPO 2712/2718 19006KT      BECMG 2809/2812 21008KT=